createdAt,value
2018-04-30T00:01:57.307Z,17.20
2018-04-30T00:04:24.747Z,17.20
2018-04-30T00:06:52.212Z,17.10
2018-04-30T00:09:19.678Z,17.10
2018-04-30T00:11:47.244Z,17.20
2018-04-30T00:14:14.790Z,17.10
2018-04-30T00:16:42.251Z,17.10
2018-04-30T00:19:09.711Z,17.10
2018-04-30T00:21:37.273Z,17.10
2018-04-30T00:24:04.827Z,17.10
2018-04-30T00:26:32.394Z,17.10
2018-04-30T00:28:59.823Z,17.10
2018-04-30T00:31:27.268Z,17.10
2018-04-30T00:33:54.702Z,17.10
2018-04-30T00:36:22.938Z,17.20
2018-04-30T00:38:50.499Z,17.20
2018-04-30T00:41:18.054Z,17.30
2018-04-30T00:43:45.510Z,17.30
2018-04-30T00:46:12.962Z,17.30
2018-04-30T00:48:40.411Z,17.40
2018-04-30T00:51:07.860Z,17.40
2018-04-30T00:53:35.328Z,17.30
2018-04-30T00:56:02.771Z,17.40
2018-04-30T00:58:30.206Z,17.40
2018-04-30T01:00:57.642Z,17.40
2018-04-30T01:03:26.298Z,17.40
2018-04-30T01:05:53.738Z,17.30
2018-04-30T01:08:21.200Z,17.40
2018-04-30T01:10:48.736Z,17.30
2018-04-30T01:13:16.115Z,17.30
2018-04-30T01:15:43.674Z,17.30
2018-04-30T01:18:11.133Z,17.30
2018-04-30T01:20:38.568Z,17.30
2018-04-30T01:23:06.045Z,17.20
2018-04-30T01:25:33.497Z,17.20
2018-04-30T01:28:00.944Z,17.20
2018-04-30T01:30:28.374Z,17.10
2018-04-30T01:32:55.814Z,17.10
2018-04-30T01:35:24.016Z,17.20
2018-04-30T01:37:51.510Z,17.10
2018-04-30T01:40:18.955Z,17.10
2018-04-30T01:42:46.401Z,17.00
2018-04-30T01:45:13.867Z,17.10
2018-04-30T01:47:41.337Z,17.10
2018-04-30T01:50:08.769Z,17.10
2018-04-30T01:52:36.234Z,17.00
2018-04-30T01:55:03.696Z,17.00
2018-04-30T01:57:31.128Z,17.00
2018-04-30T01:59:58.585Z,17.00
2018-04-30T02:02:26.020Z,17.00
2018-04-30T02:04:54.214Z,17.00
2018-04-30T02:07:21.710Z,16.90
2018-04-30T02:09:49.257Z,17.00
2018-04-30T02:12:16.689Z,16.90
2018-04-30T02:14:44.193Z,16.90
2018-04-30T02:17:11.740Z,16.90
2018-04-30T02:19:39.301Z,16.90
2018-04-30T02:22:06.851Z,17.00
2018-04-30T02:24:34.312Z,16.90
2018-04-30T02:27:01.746Z,16.90
2018-04-30T02:29:29.226Z,16.90
2018-04-30T02:31:56.662Z,16.90
2018-04-30T02:34:24.118Z,16.90
2018-04-30T02:36:51.566Z,16.90
2018-04-30T02:39:19.048Z,16.90
2018-04-30T02:41:46.486Z,16.90
2018-04-30T02:44:13.922Z,16.90
2018-04-30T02:46:41.358Z,16.90
2018-04-30T02:49:09.601Z,16.80
2018-04-30T02:51:37.064Z,16.80
2018-04-30T02:54:04.512Z,16.90
2018-04-30T02:56:31.978Z,16.90
2018-04-30T02:58:59.434Z,16.90
2018-04-30T03:01:26.991Z,16.80
2018-04-30T03:03:54.419Z,16.80
2018-04-30T03:06:22.254Z,16.80
2018-04-30T03:08:50.434Z,16.80
2018-04-30T03:11:17.869Z,16.80
2018-04-30T03:13:46.113Z,16.80
2018-04-30T03:16:13.563Z,16.80
2018-04-30T03:18:41.031Z,16.80
2018-04-30T03:21:08.463Z,16.80
2018-04-30T03:23:35.930Z,16.80
2018-04-30T03:26:03.398Z,16.70
2018-04-30T03:28:30.840Z,16.80
2018-04-30T03:30:58.290Z,16.70
2018-04-30T03:33:25.733Z,16.70
2018-04-30T03:35:53.219Z,16.70
2018-04-30T03:38:20.659Z,16.70
2018-04-30T03:40:48.091Z,16.60
2018-04-30T03:43:15.525Z,16.70
2018-04-30T03:45:43.775Z,16.70
2018-04-30T03:48:11.222Z,16.70
2018-04-30T03:50:38.670Z,16.70
2018-04-30T03:53:06.134Z,16.70
2018-04-30T03:55:33.574Z,16.60
2018-04-30T03:58:01.030Z,16.60
2018-04-30T04:00:40.382Z,16.50
2018-04-30T04:03:19.689Z,16.50
2018-04-30T04:05:58.998Z,16.50
2018-04-30T04:08:27.210Z,16.40
2018-04-30T04:10:54.682Z,16.40
2018-04-30T04:13:22.122Z,16.40
2018-04-30T04:15:49.559Z,16.40
2018-04-30T04:18:17.062Z,16.30
2018-04-30T04:20:44.505Z,16.30
2018-04-30T04:23:11.980Z,16.30
2018-04-30T04:25:39.406Z,16.30
2018-04-30T04:28:06.846Z,16.30
2018-04-30T04:30:34.374Z,16.30
2018-04-30T04:33:02.630Z,16.30
2018-04-30T04:35:30.058Z,16.30
2018-04-30T04:37:57.530Z,16.30
2018-04-30T04:40:24.966Z,16.30
2018-04-30T04:42:52.402Z,16.30
2018-04-30T04:45:19.898Z,16.30
2018-04-30T04:47:47.350Z,16.20
2018-04-30T04:50:14.913Z,16.20
2018-04-30T04:52:42.374Z,16.20
2018-04-30T04:55:09.826Z,16.20
2018-04-30T04:57:37.390Z,16.20
2018-04-30T05:00:04.827Z,16.20
2018-04-30T05:02:32.254Z,16.20
2018-04-30T05:05:00.458Z,16.20
2018-04-30T05:07:27.897Z,16.10
2018-04-30T05:09:55.333Z,16.10
2018-04-30T05:12:23.561Z,16.20
2018-04-30T05:14:51.001Z,16.10
2018-04-30T05:17:18.486Z,16.10
2018-04-30T05:19:45.946Z,16.00
2018-04-30T05:22:13.404Z,16.10
2018-04-30T05:24:40.834Z,16.10
2018-04-30T05:27:08.270Z,16.10
2018-04-30T05:29:35.757Z,16.10
2018-04-30T05:32:03.195Z,16.10
2018-04-30T05:34:30.678Z,16.00
2018-04-30T05:36:58.240Z,16.00
2018-04-30T05:39:25.674Z,16.00
2018-04-30T05:41:53.105Z,16.00
2018-04-30T05:44:20.546Z,16.00
2018-04-30T05:46:48.751Z,16.00
2018-04-30T05:49:16.185Z,16.00
2018-04-30T05:51:44.399Z,16.00
2018-04-30T05:54:11.843Z,16.00
2018-04-30T05:56:39.274Z,15.90
2018-04-30T05:59:07.493Z,15.90
2018-04-30T06:01:34.954Z,15.80
2018-04-30T06:04:02.383Z,15.80
2018-04-30T06:06:29.818Z,15.80
2018-04-30T06:08:58.015Z,15.90
2018-04-30T06:11:25.453Z,15.80
2018-04-30T06:13:52.893Z,15.90
2018-04-30T06:16:21.230Z,15.90
2018-04-30T06:18:48.694Z,15.80
2018-04-30T06:21:16.786Z,15.80
2018-04-30T06:23:45.138Z,15.80
2018-04-30T06:26:12.593Z,15.80
2018-04-30T06:28:40.034Z,15.70
2018-04-30T06:31:07.510Z,15.80
2018-04-30T06:33:34.966Z,15.80
2018-04-30T06:36:02.757Z,15.70
2018-04-30T06:38:31.698Z,15.70
2018-04-30T06:40:59.130Z,15.70
2018-04-30T06:43:27.342Z,15.60
2018-04-30T06:45:54.814Z,15.60
2018-04-30T06:48:22.255Z,15.70
2018-04-30T06:50:49.726Z,15.60
2018-04-30T06:53:17.167Z,15.60
2018-04-30T06:55:44.607Z,15.60
2018-04-30T06:58:12.817Z,15.70
2018-04-30T07:00:40.266Z,15.70
2018-04-30T07:03:07.699Z,15.70
2018-04-30T07:05:35.186Z,15.80
2018-04-30T07:08:02.630Z,15.70
2018-04-30T07:10:30.099Z,15.60
2018-04-30T07:12:57.558Z,15.70
2018-04-30T07:15:24.986Z,15.70
2018-04-30T07:17:53.268Z,15.90
2018-04-30T07:20:20.741Z,15.90
2018-04-30T07:22:48.192Z,15.80
2018-04-30T07:25:15.613Z,15.80
2018-04-30T07:27:43.124Z,15.70
2018-04-30T07:30:11.398Z,15.80
2018-04-30T07:32:38.825Z,15.80
2018-04-30T07:35:06.258Z,15.80
2018-04-30T07:37:34.474Z,15.80
2018-04-30T07:40:01.923Z,15.80
2018-04-30T07:42:29.403Z,15.80
2018-04-30T07:44:56.853Z,15.80
2018-04-30T07:47:24.307Z,15.70
2018-04-30T07:49:51.735Z,15.80
2018-04-30T07:52:19.174Z,15.80
2018-04-30T07:54:47.495Z,15.80
2018-04-30T07:57:15.026Z,15.80
2018-04-30T07:59:42.412Z,15.70
2018-04-30T08:02:09.846Z,15.70
2018-04-30T08:04:37.299Z,15.70
2018-04-30T08:07:04.757Z,15.70
2018-04-30T08:09:32.234Z,15.70
2018-04-30T08:11:59.694Z,15.80
2018-04-30T08:14:27.142Z,15.80
2018-04-30T08:16:54.575Z,15.80
2018-04-30T08:19:22.036Z,15.80
2018-04-30T08:21:49.518Z,15.80
2018-04-30T08:24:16.980Z,15.90
2018-04-30T08:26:44.439Z,15.90
2018-04-30T08:29:11.872Z,16.00
2018-04-30T08:31:39.313Z,16.00
2018-04-30T08:34:07.214Z,16.20
2018-04-30T08:36:34.694Z,16.30
2018-04-30T08:39:02.126Z,16.30
2018-04-30T08:41:29.566Z,16.20
2018-04-30T08:43:57.006Z,16.10
2018-04-30T08:46:24.502Z,16.10
2018-04-30T08:48:52.298Z,16.00
2018-04-30T08:51:19.826Z,16.10
2018-04-30T08:53:47.286Z,16.10
2018-04-30T08:56:14.717Z,16.00
2018-04-30T08:58:42.166Z,16.10
2018-04-30T09:01:09.650Z,16.10
2018-04-30T09:03:37.098Z,16.10
2018-04-30T09:06:04.528Z,16.10
2018-04-30T09:08:31.978Z,16.10
2018-04-30T09:11:00.301Z,16.30
2018-04-30T09:13:27.731Z,16.30
2018-04-30T09:15:55.162Z,16.40
2018-04-30T09:18:23.373Z,16.60
2018-04-30T09:20:50.870Z,16.60
2018-04-30T09:23:18.402Z,16.70
2018-04-30T09:25:45.858Z,16.70
2018-04-30T09:28:13.329Z,16.70
2018-04-30T09:30:40.726Z,16.60
2018-04-30T09:33:08.434Z,16.50
2018-04-30T09:35:36.318Z,16.50
2018-04-30T09:38:03.763Z,16.40
2018-04-30T09:40:31.932Z,16.30
2018-04-30T09:43:00.115Z,16.40
2018-04-30T09:45:27.538Z,16.40
2018-04-30T09:47:55.015Z,16.50
2018-04-30T09:50:22.506Z,16.50
2018-04-30T09:52:49.986Z,16.50
2018-04-30T09:55:18.216Z,16.60
2018-04-30T09:57:45.722Z,16.60
2018-04-30T10:00:13.085Z,16.60
2018-04-30T10:02:40.583Z,16.50
2018-04-30T10:05:08.039Z,16.50
2018-04-30T10:07:36.317Z,16.60
2018-04-30T10:10:03.754Z,16.50
2018-04-30T10:12:31.186Z,16.60
2018-04-30T10:14:58.622Z,16.50
2018-04-30T10:17:26.834Z,16.40
2018-04-30T10:19:54.270Z,16.40
2018-04-30T10:22:22.793Z,16.40
2018-04-30T10:24:50.228Z,16.40
2018-04-30T10:27:17.690Z,16.40
2018-04-30T10:29:45.117Z,16.30
2018-04-30T10:32:13.320Z,16.40
2018-04-30T10:34:40.797Z,16.40
2018-04-30T10:37:08.254Z,16.40
2018-04-30T10:39:35.686Z,16.40
2018-04-30T10:42:03.130Z,16.40
2018-04-30T10:44:30.579Z,16.40
2018-04-30T10:46:58.809Z,16.50
2018-04-30T10:49:26.242Z,16.50
2018-04-30T10:51:53.683Z,16.50
2018-04-30T10:54:21.118Z,16.50
2018-04-30T10:56:49.322Z,16.50
2018-04-30T10:59:16.754Z,16.50
2018-04-30T11:01:44.957Z,16.60
2018-04-30T11:04:12.385Z,16.60
2018-04-30T11:06:41.214Z,16.80
2018-04-30T11:09:08.653Z,16.80
2018-04-30T11:11:36.086Z,16.90
2018-04-30T11:14:04.302Z,17.10
2018-04-30T11:16:31.750Z,17.00
2018-04-30T11:18:59.186Z,17.10
2018-04-30T11:21:26.649Z,17.10
2018-04-30T11:23:54.069Z,17.10
2018-04-30T11:26:22.267Z,17.20
2018-04-30T11:28:49.701Z,17.20
2018-04-30T11:31:17.900Z,17.10
2018-04-30T11:33:45.334Z,17.10
2018-04-30T11:36:13.572Z,17.10
2018-04-30T11:38:41.006Z,17.10
2018-04-30T11:41:08.442Z,17.20
2018-04-30T11:43:35.957Z,17.30
2018-04-30T11:46:03.498Z,17.40
2018-04-30T11:48:30.954Z,17.40
2018-04-30T11:50:58.404Z,17.50
2018-04-30T11:53:25.838Z,17.50
2018-04-30T11:55:53.291Z,17.60
2018-04-30T11:58:20.721Z,17.60
2018-04-30T12:00:48.962Z,17.60
2018-04-30T12:03:16.523Z,17.60
2018-04-30T12:05:44.075Z,17.60
2018-04-30T12:08:11.638Z,17.50
2018-04-30T12:10:39.097Z,17.60
2018-04-30T12:13:06.545Z,17.50
2018-04-30T12:15:34.014Z,17.60
2018-04-30T12:18:01.461Z,17.60
2018-04-30T12:20:28.919Z,17.60
2018-04-30T12:22:56.374Z,17.50
2018-04-30T12:25:23.818Z,17.50
2018-04-30T12:27:51.254Z,17.60
2018-04-30T12:30:19.057Z,17.60
2018-04-30T12:32:46.490Z,17.50
2018-04-30T12:35:13.922Z,17.50
2018-04-30T12:37:41.365Z,17.60
2018-04-30T12:40:09.574Z,17.80
2018-04-30T12:42:37.016Z,17.80
2018-04-30T12:45:04.517Z,17.80
2018-04-30T12:47:31.970Z,17.80
2018-04-30T12:49:59.424Z,17.80
2018-04-30T12:52:26.882Z,17.80
2018-04-30T12:54:54.499Z,17.90
2018-04-30T12:57:22.006Z,17.90
2018-04-30T12:59:49.568Z,18.00
2018-04-30T13:02:17.024Z,17.90
2018-04-30T13:04:44.469Z,18.00
2018-04-30T13:07:11.931Z,18.00
2018-04-30T13:09:39.388Z,17.90
2018-04-30T13:12:06.846Z,17.90
2018-04-30T13:14:34.951Z,17.90
2018-04-30T13:17:02.482Z,17.90
2018-04-30T13:19:29.937Z,17.90
2018-04-30T13:21:57.406Z,17.80
2018-04-30T13:24:24.946Z,17.90
2018-04-30T13:26:52.518Z,17.80
2018-04-30T13:29:19.954Z,17.80
2018-04-30T13:31:47.378Z,17.90
2018-04-30T13:34:14.836Z,17.80
2018-04-30T13:36:43.055Z,17.90
2018-04-30T13:39:10.492Z,17.80
2018-04-30T13:41:37.942Z,17.90
2018-04-30T13:44:05.423Z,17.80
2018-04-30T13:46:32.858Z,17.80
2018-04-30T13:49:00.295Z,17.90
2018-04-30T13:51:27.725Z,17.90
2018-04-30T13:53:55.934Z,17.80
2018-04-30T13:56:23.422Z,17.80
2018-04-30T13:58:50.900Z,17.80
2018-04-30T14:01:18.491Z,17.80
2018-04-30T14:03:46.674Z,17.80
2018-04-30T14:06:14.107Z,17.80
2018-04-30T14:08:42.361Z,17.70
2018-04-30T14:11:09.910Z,17.70
2018-04-30T14:13:37.351Z,17.70
2018-04-30T14:16:04.827Z,17.70
2018-04-30T14:18:32.273Z,17.60
2018-04-30T14:20:59.708Z,17.60
2018-04-30T14:23:27.200Z,17.60
2018-04-30T14:25:54.750Z,17.60
2018-04-30T14:28:22.986Z,17.50
2018-04-30T14:30:50.483Z,17.60
2018-04-30T14:33:17.946Z,17.60
2018-04-30T14:35:45.506Z,17.60
2018-04-30T14:38:12.955Z,17.60
2018-04-30T14:40:40.414Z,17.50
2018-04-30T14:43:07.874Z,17.50
2018-04-30T14:45:35.310Z,17.40
2018-04-30T14:48:02.738Z,17.50
2018-04-30T14:50:30.868Z,17.50
2018-04-30T14:52:58.415Z,17.50
2018-04-30T14:55:25.843Z,17.40
2018-04-30T14:57:53.282Z,17.50
2018-04-30T15:00:20.797Z,17.50
2018-04-30T15:02:48.341Z,17.50
2018-04-30T15:05:15.778Z,17.60
2018-04-30T15:07:43.199Z,17.50
2018-04-30T15:10:11.435Z,17.60
2018-04-30T15:12:38.866Z,17.50
2018-04-30T15:15:06.302Z,17.50
2018-04-30T15:17:33.798Z,17.60
2018-04-30T15:20:01.234Z,17.60
2018-04-30T15:22:28.666Z,17.60
2018-04-30T15:24:56.890Z,17.50
2018-04-30T15:27:24.342Z,17.40
2018-04-30T15:29:51.906Z,17.40
2018-04-30T15:32:19.357Z,17.40
2018-04-30T15:34:46.795Z,17.50
2018-04-30T15:37:14.274Z,17.50
2018-04-30T15:39:41.733Z,17.50
2018-04-30T15:42:09.195Z,17.50
2018-04-30T15:44:36.606Z,17.50
2018-04-30T15:47:04.049Z,17.50
2018-04-30T15:49:32.251Z,17.50
2018-04-30T15:51:59.686Z,17.50
2018-04-30T15:54:27.938Z,17.50
2018-04-30T15:56:55.362Z,17.50
2018-04-30T15:59:22.827Z,17.40
2018-04-30T16:01:50.262Z,17.40
2018-04-30T16:04:17.696Z,17.40
2018-04-30T16:06:45.134Z,17.40
2018-04-30T16:09:13.840Z,17.30
2018-04-30T16:11:41.338Z,17.30
2018-04-30T16:14:08.845Z,17.30
2018-04-30T16:16:36.197Z,17.30
2018-04-30T16:19:04.407Z,17.20
2018-04-30T16:21:31.858Z,17.20
2018-04-30T16:23:59.334Z,17.20
2018-04-30T16:26:26.770Z,17.20
2018-04-30T16:28:54.214Z,17.20
2018-04-30T16:31:21.649Z,17.20
2018-04-30T16:33:49.869Z,17.20
2018-04-30T16:36:17.306Z,17.20
2018-04-30T16:38:44.743Z,17.10
2018-04-30T16:41:12.947Z,17.10
2018-04-30T16:43:40.402Z,17.10
2018-04-30T16:46:07.882Z,17.10
2018-04-30T16:48:35.318Z,17.10
2018-04-30T16:51:02.750Z,17.00
2018-04-30T16:53:30.186Z,17.00
2018-04-30T16:55:58.394Z,17.00
2018-04-30T16:58:25.819Z,17.00
2018-04-30T17:00:54.034Z,16.90
2018-04-30T17:03:21.543Z,16.90
2018-04-30T17:05:48.989Z,16.90
2018-04-30T17:08:16.427Z,16.90
2018-04-30T17:10:43.857Z,16.90
2018-04-30T17:13:11.298Z,16.90
2018-04-30T17:15:39.507Z,16.80
2018-04-30T17:18:06.948Z,16.80
2018-04-30T17:20:34.382Z,16.80
2018-04-30T17:23:02.582Z,16.80
2018-04-30T17:25:30.035Z,16.80
2018-04-30T17:27:57.463Z,16.70
2018-04-30T17:30:25.707Z,16.70
2018-04-30T17:32:53.110Z,16.70
2018-04-30T17:35:20.560Z,16.80
2018-04-30T17:37:48.754Z,16.70
2018-04-30T17:40:16.546Z,16.70
2018-04-30T17:42:43.981Z,16.70
2018-04-30T17:45:11.414Z,16.70
2018-04-30T17:47:38.914Z,16.60
2018-04-30T17:50:06.362Z,16.60
2018-04-30T17:52:33.798Z,16.60
2018-04-30T17:55:01.226Z,16.60
2018-04-30T17:57:29.442Z,16.60
2018-04-30T17:59:56.971Z,16.60
2018-04-30T18:02:24.322Z,16.60
2018-04-30T18:04:52.528Z,16.50
2018-04-30T18:07:19.957Z,16.50
2018-04-30T18:09:47.411Z,16.40
2018-04-30T18:12:15.622Z,16.30
2018-04-30T18:14:43.055Z,16.30
2018-04-30T18:17:10.490Z,16.30
2018-04-30T18:19:38.699Z,16.30
2018-04-30T18:22:06.126Z,16.20
2018-04-30T18:24:34.324Z,16.20
2018-04-30T18:27:01.759Z,16.20
2018-04-30T18:29:29.988Z,16.10
2018-04-30T18:31:57.413Z,16.10
2018-04-30T18:34:24.859Z,16.10
2018-04-30T18:36:52.282Z,16.10
2018-04-30T18:39:19.722Z,16.10
2018-04-30T18:41:47.262Z,16.00
2018-04-30T18:44:14.725Z,16.00
2018-04-30T18:46:42.159Z,16.10
2018-04-30T18:49:09.643Z,16.00
2018-04-30T18:51:37.078Z,16.00
2018-04-30T18:54:04.530Z,16.00
2018-04-30T18:56:31.958Z,15.90
2018-04-30T18:59:00.157Z,15.90
2018-04-30T19:01:27.596Z,15.90
2018-04-30T19:03:55.034Z,15.90
2018-04-30T19:06:23.246Z,15.90
2018-04-30T19:08:50.686Z,15.90
2018-04-30T19:11:18.113Z,15.90
2018-04-30T19:13:46.317Z,16.00
2018-04-30T19:16:13.759Z,15.90
2018-04-30T19:18:41.959Z,15.90
2018-04-30T19:21:09.387Z,15.90
2018-04-30T19:23:37.606Z,15.90
2018-04-30T19:26:05.047Z,15.80
2018-04-30T19:28:32.483Z,15.90
2018-04-30T19:31:00.681Z,15.80
2018-04-30T19:33:28.114Z,15.80
2018-04-30T19:35:56.330Z,15.70
2018-04-30T19:38:23.766Z,15.70
2018-04-30T19:40:51.194Z,15.60
2018-04-30T19:43:19.402Z,15.70
2018-04-30T19:45:46.838Z,15.70
2018-04-30T19:48:14.265Z,15.70
2018-04-30T19:50:41.706Z,15.70
2018-04-30T19:53:09.135Z,15.60
2018-04-30T19:55:36.586Z,15.60
2018-04-30T19:58:04.018Z,15.60
2018-04-30T20:00:31.448Z,15.60
2018-04-30T20:02:58.878Z,15.50
2018-04-30T20:05:26.314Z,15.60
2018-04-30T20:07:53.759Z,15.50
2018-04-30T20:10:21.246Z,15.50
2018-04-30T20:12:49.396Z,15.50
2018-04-30T20:15:16.826Z,15.50
2018-04-30T20:17:45.036Z,15.50
2018-04-30T20:20:12.462Z,15.50
2018-04-30T20:22:39.899Z,15.40
2018-04-30T20:25:08.101Z,15.50
2018-04-30T20:27:35.530Z,15.50
2018-04-30T20:30:03.734Z,15.50
2018-04-30T20:32:31.188Z,15.50
2018-04-30T20:34:59.394Z,15.40
2018-04-30T20:37:26.834Z,15.40
2018-04-30T20:39:54.275Z,15.40
2018-04-30T20:42:21.698Z,15.40
2018-04-30T20:44:49.130Z,15.40
2018-04-30T20:47:16.562Z,15.40
2018-04-30T20:49:44.001Z,15.40
2018-04-30T20:52:11.429Z,15.40
2018-04-30T20:54:38.874Z,15.40
2018-04-30T20:57:06.306Z,15.30
2018-04-30T20:59:33.742Z,15.30
2018-04-30T21:02:01.187Z,15.40
2018-04-30T21:04:28.618Z,15.30
2018-04-30T21:06:56.817Z,15.20
2018-04-30T21:09:24.278Z,15.20
2018-04-30T21:11:52.471Z,15.20
2018-04-30T21:14:19.894Z,15.20
2018-04-30T21:16:47.330Z,15.30
2018-04-30T21:19:15.571Z,15.20
2018-04-30T21:21:43.006Z,15.20
2018-04-30T21:24:10.563Z,15.10
2018-04-30T21:26:37.937Z,15.10
2018-04-30T21:29:05.398Z,15.10
2018-04-30T21:31:32.835Z,15.20
2018-04-30T21:34:00.289Z,15.10
2018-04-30T21:36:27.720Z,15.10
2018-04-30T21:38:55.915Z,15.00
2018-04-30T21:41:23.380Z,15.00
2018-04-30T21:43:50.794Z,15.00
2018-04-30T21:46:19.001Z,14.90
2018-04-30T21:48:46.431Z,15.00
2018-04-30T21:51:14.637Z,15.00
2018-04-30T21:53:42.125Z,14.90
2018-04-30T21:56:09.511Z,14.90
2018-04-30T21:58:37.709Z,14.90
2018-04-30T22:01:05.146Z,14.80
2018-04-30T22:03:33.356Z,14.80
2018-04-30T22:06:00.833Z,14.80
2018-04-30T22:08:28.283Z,14.80
2018-04-30T22:10:55.726Z,14.90
2018-04-30T22:13:23.166Z,14.80
2018-04-30T22:15:50.598Z,14.80
2018-04-30T22:18:18.838Z,14.80
2018-04-30T22:20:46.268Z,14.80
2018-04-30T22:23:13.710Z,14.80
2018-04-30T22:25:41.145Z,14.80
2018-04-30T22:28:08.572Z,14.90
2018-04-30T22:30:35.999Z,14.80
2018-04-30T22:33:03.443Z,14.80
2018-04-30T22:35:30.886Z,14.80
2018-04-30T22:37:58.318Z,14.80
2018-04-30T22:40:25.771Z,14.80
2018-04-30T22:42:53.198Z,14.70
2018-04-30T22:45:20.635Z,14.80
2018-04-30T22:47:48.099Z,14.70
2018-04-30T22:50:15.526Z,14.70
2018-04-30T22:52:42.967Z,14.70
2018-04-30T22:55:11.178Z,14.70
2018-04-30T22:57:38.605Z,14.70
2018-04-30T23:00:06.812Z,14.70
2018-04-30T23:02:34.267Z,14.70
2018-04-30T23:05:01.693Z,14.70
2018-04-30T23:07:29.153Z,14.70
2018-04-30T23:09:57.357Z,14.80
2018-04-30T23:12:24.794Z,14.80
2018-04-30T23:14:52.240Z,14.80
2018-04-30T23:17:20.441Z,14.70
2018-04-30T23:19:47.874Z,14.70
2018-04-30T23:22:15.350Z,14.70
2018-04-30T23:24:42.786Z,14.60
2018-04-30T23:27:10.987Z,14.60
2018-04-30T23:29:38.428Z,14.60
2018-04-30T23:32:05.861Z,14.60
2018-04-30T23:34:34.065Z,14.50
2018-04-30T23:37:01.573Z,14.50
2018-04-30T23:39:29.934Z,14.40
2018-04-30T23:41:57.510Z,14.40
2018-04-30T23:44:24.946Z,14.40
2018-04-30T23:46:52.389Z,14.40
2018-04-30T23:49:19.810Z,14.40
2018-04-30T23:51:48.062Z,14.40
2018-04-30T23:54:15.493Z,14.40
2018-04-30T23:56:42.938Z,14.40
2018-04-30T23:59:10.410Z,14.20
